Sirena 3 — WDD7469 — position and weather

sailwx.info

Track history (hours):
 
Tides and Currents Weather Stations Pressure Air Temp Water Temp Dewpoint Dewpoint Depression Visibility Wind Speed Wind Dir Waves Ship Positions

Sirena 3

Owner: Loeb, Steven, Stamford, CT. More information available from US FCC via Universal Licensing System and Coast Guard Vessel Documentation Center.

Last reported at 2015-Aug-23 23:30 UTC. Time now 2015-Aug-31 10:58 UTC.
Position N 41°01' W 073°32'.

Length 18 m.

Type: Sailing vessel. MMSI: 367186880.

Date/timePositionNaut miles runAvg speedWind from/ knotsBaromVisibWave heightAir tempDewpointWater temp
2015-Aug-23 23:30N 41°01' W 073°32'7 7.4
2015-Aug-23 22:32N 41°02' W 073°23'9 8.7
2015-Aug-23 21:33N 41°05' W 073°12'9 9.1
2015-Aug-23 20:33N 41°08' W 073°01'9 8.5
2015-Aug-23 19:33N 41°10' W 072°50'9 8.7
2015-Aug-23 18:33N 41°12' W 072°39'9 8.8
2015-Aug-23 17:33N 41°13' W 072°27'8 8.0
2015-Aug-23 16:33N 41°14' W 072°16'7 7.1
2015-Aug-23 15:33N 41°16' W 072°07'7 6.7
2015-Aug-23 14:33N 41°18' W 071°59'4 3.5
2015-Aug-23 13:32N 41°20' W 071°55'0 0.0
2015-Aug-21 22:30N 41°20' W 071°55'0 0.0
2015-Aug-21 21:33N 41°20' W 071°55'0 0.0
2015-Aug-21 20:33N 41°20' W 071°55'0 0.0
2015-Aug-21 19:33N 41°20' W 071°55'0 0.0
2015-Aug-21 18:33N 41°20' W 071°55'0 0.0
2015-Aug-21 17:33N 41°20' W 071°55'0 0.0
2015-Aug-21 16:33N 41°20' W 071°55'1 0.8
2015-Aug-21 15:33N 41°19' W 071°55'7 7.2
2015-Aug-21 14:33N 41°18' W 071°45'8 8.3
2015-Aug-21 13:34N 41°20' W 071°35'6 5.7
2015-Aug-21 12:33N 41°22' W 071°27'6 5.5
2015-Aug-21 11:33N 41°27' W 071°23'4 4.0
2015-Aug-21 10:33N 41°29' W 071°19'1 0.1
2015-Aug-21 01:28N 41°29' W 071°20'0 0.0
2015-Aug-21 00:31N 41°29' W 071°20'0 0.0
2015-Aug-20 23:31N 41°29' W 071°20'0 0.0
2015-Aug-20 22:25N 41°29' W 071°20'0 0.0
2015-Aug-19 01:10N 41°29' W 071°20'0 0.0
2015-Aug-19 00:30N 41°29' W 071°20'0 0.0
2015-Aug-18 23:31N 41°29' W 071°20'0 0.0
2015-Aug-18 22:31N 41°29' W 071°20'0 0.0
2015-Aug-17 23:07N 41°29' W 071°20'0 0.0
2015-Aug-17 22:33N 41°29' W 071°20'0 0.0
2015-Aug-17 21:30N 41°29' W 071°20'0 0.0
2015-Aug-17 20:33N 41°29' W 071°20'0 0.0
2015-Aug-17 19:33N 41°29' W 071°20'0 0.0
2015-Aug-17 18:27N 41°29' W 071°20'0 0.3
2015-Aug-17 17:33N 41°29' W 071°20'3 3.2
2015-Aug-17 16:33N 41°26' W 071°22'7 7.3
2015-Aug-17 15:33N 41°26' W 071°12'7 6.6
2015-Aug-17 14:33N 41°25' W 071°03'5 5.2
2015-Aug-17 13:33N 41°23' W 070°57'5 4.6
2015-Aug-17 12:33N 41°22' W 070°51'4 3.5
2015-Aug-17 11:30N 41°21' W 070°46'0 0.0
2015-Aug-16 23:31N 41°21' W 070°46'0 0.0
2015-Aug-16 22:33N 41°21' W 070°46'5 4.7
2015-Aug-16 21:33N 41°26' W 070°45'7 7.1
2015-Aug-16 20:31N 41°30' W 070°37'  
Track history (hours):
 
Tides and Currents Weather Stations Pressure Air Temp Water Temp Dewpoint Dewpoint Depression Visibility Wind Speed Wind Dir Waves Ship Positions

Sirena 3

Owner: Loeb, Steven, Stamford, CT. More information available from US FCC via Universal Licensing System and Coast Guard Vessel Documentation Center.

Last reported at 2015-Aug-23 23:30 UTC. Time now 2015-Aug-31 10:58 UTC.
Position N 41°01' W 073°32'.

Length 18 m.

Type: Sailing vessel. MMSI: 367186880.

Date/timePositionNaut miles runAvg speedWind from/ knotsBaromVisibWave heightAir tempDewpointWater temp
2015-Aug-23 23:30N 41°01' W 073°32'7 7.4
2015-Aug-23 22:32N 41°02' W 073°23'9 8.7
2015-Aug-23 21:33N 41°05' W 073°12'9 9.1
2015-Aug-23 20:33N 41°08' W 073°01'9 8.5
2015-Aug-23 19:33N 41°10' W 072°50'9 8.7
2015-Aug-23 18:33N 41°12' W 072°39'9 8.8
2015-Aug-23 17:33N 41°13' W 072°27'8 8.0
2015-Aug-23 16:33N 41°14' W 072°16'7 7.1
2015-Aug-23 15:33N 41°16' W 072°07'7 6.7
2015-Aug-23 14:33N 41°18' W 071°59'4 3.5
2015-Aug-23 13:32N 41°20' W 071°55'0 0.0
2015-Aug-21 22:30N 41°20' W 071°55'0 0.0
2015-Aug-21 21:33N 41°20' W 071°55'0 0.0
2015-Aug-21 20:33N 41°20' W 071°55'0 0.0
2015-Aug-21 19:33N 41°20' W 071°55'0 0.0
2015-Aug-21 18:33N 41°20' W 071°55'0 0.0
2015-Aug-21 17:33N 41°20' W 071°55'0 0.0
2015-Aug-21 16:33N 41°20' W 071°55'1 0.8
2015-Aug-21 15:33N 41°19' W 071°55'7 7.2
2015-Aug-21 14:33N 41°18' W 071°45'8 8.3
2015-Aug-21 13:34N 41°20' W 071°35'6 5.7
2015-Aug-21 12:33N 41°22' W 071°27'6 5.5
2015-Aug-21 11:33N 41°27' W 071°23'4 4.0
2015-Aug-21 10:33N 41°29' W 071°19'1 0.1
2015-Aug-21 01:28N 41°29' W 071°20'0 0.0
2015-Aug-21 00:31N 41°29' W 071°20'0 0.0
2015-Aug-20 23:31N 41°29' W 071°20'0 0.0
2015-Aug-20 22:25N 41°29' W 071°20'0 0.0
2015-Aug-19 01:10N 41°29' W 071°20'0 0.0
2015-Aug-19 00:30N 41°29' W 071°20'0 0.0
2015-Aug-18 23:31N 41°29' W 071°20'0 0.0
2015-Aug-18 22:31N 41°29' W 071°20'0 0.0
2015-Aug-17 23:07N 41°29' W 071°20'0 0.0
2015-Aug-17 22:33N 41°29' W 071°20'0 0.0
2015-Aug-17 21:30N 41°29' W 071°20'0 0.0
2015-Aug-17 20:33N 41°29' W 071°20'0 0.0
2015-Aug-17 19:33N 41°29' W 071°20'0 0.0
2015-Aug-17 18:27N 41°29' W 071°20'0 0.3
2015-Aug-17 17:33N 41°29' W 071°20'3 3.2
2015-Aug-17 16:33N 41°26' W 071°22'7 7.3
2015-Aug-17 15:33N 41°26' W 071°12'7 6.6
2015-Aug-17 14:33N 41°25' W 071°03'5 5.2
2015-Aug-17 13:33N 41°23' W 070°57'5 4.6
2015-Aug-17 12:33N 41°22' W 070°51'4 3.5
2015-Aug-17 11:30N 41°21' W 070°46'0 0.0
2015-Aug-16 23:31N 41°21' W 070°46'0 0.0
2015-Aug-16 22:33N 41°21' W 070°46'5 4.7
2015-Aug-16 21:33N 41°26' W 070°45'7 7.1
2015-Aug-16 20:31N 41°30' W 070°37'  

Dump ship's entire track history